createdAt,value
2019-05-26T00:00:32.784Z,12.70
2019-05-26T00:03:00.449Z,12.70
2019-05-26T00:05:28.130Z,12.70
2019-05-26T00:07:55.820Z,12.70
2019-05-26T00:10:23.506Z,12.70
2019-05-26T00:12:51.168Z,12.60
2019-05-26T00:15:18.884Z,12.60
2019-05-26T00:17:46.562Z,12.60
2019-05-26T00:20:14.288Z,12.60
2019-05-26T00:22:41.952Z,12.60
2019-05-26T00:25:09.682Z,12.50
2019-05-26T00:39:54.422Z,12.00
2019-05-26T00:42:22.103Z,12.00
2019-05-26T00:47:17.290Z,11.90
2019-05-26T00:52:12.583Z,11.80
2019-05-26T00:54:40.255Z,11.70
2019-05-26T00:59:35.324Z,11.50
2019-05-26T01:02:02.976Z,11.40
2019-05-26T01:04:30.629Z,11.40
2019-05-26T01:06:58.272Z,11.40
2019-05-26T01:09:25.937Z,11.30
2019-05-26T01:11:53.578Z,11.30
2019-05-26T01:14:21.245Z,11.20
2019-05-26T01:16:48.887Z,11.10
2019-05-26T01:21:43.972Z,11.10
2019-05-26T01:24:11.623Z,11.10
2019-05-26T01:26:39.287Z,11.10
2019-05-26T01:31:34.320Z,11.00
2019-05-26T01:34:01.997Z,10.80
2019-05-26T01:36:29.659Z,10.80
2019-05-26T01:38:57.505Z,10.90
2019-05-26T01:41:25.205Z,10.90
2019-05-26T01:43:52.890Z,10.90
2019-05-26T01:46:20.550Z,10.90
2019-05-26T01:48:48.217Z,10.90
2019-05-26T01:51:15.859Z,10.80
2019-05-26T01:53:43.515Z,10.80
2019-05-26T01:56:11.159Z,10.80
2019-05-26T01:58:38.899Z,10.70
2019-05-26T02:01:06.565Z,10.60
2019-05-26T02:03:34.206Z,10.50
2019-05-26T02:06:01.880Z,10.60
2019-05-26T02:08:38.921Z,10.60
2019-05-26T02:10:58.920Z,10.50
2019-05-26T02:15:53.957Z,10.40
2019-05-26T02:18:21.600Z,10.20
2019-05-26T02:20:49.276Z,10.20
2019-05-26T02:25:44.320Z,10.00
2019-05-26T02:28:11.979Z,9.90
2019-05-26T02:30:39.641Z,10.00
2019-05-26T02:33:07.340Z,10.00
2019-05-26T02:35:35.005Z,10.00
2019-05-26T02:38:02.654Z,9.90
2019-05-26T02:40:30.282Z,9.90
2019-05-26T02:42:57.940Z,10.00
2019-05-26T02:45:25.689Z,10.00
2019-05-26T02:47:53.336Z,9.90
2019-05-26T02:50:21.067Z,10.00
2019-05-26T02:52:49.720Z,10.00
2019-05-26T02:55:17.455Z,9.90
2019-05-26T02:57:45.098Z,9.90
2019-05-26T03:00:13.422Z,9.90
2019-05-26T03:02:41.164Z,9.90
2019-05-26T03:05:09.689Z,9.80
2019-05-26T03:07:38.875Z,9.50
2019-05-26T03:12:33.920Z,9.20
2019-05-26T03:17:30.693Z,9.20
2019-05-26T03:19:58.797Z,9.30
2019-05-26T03:22:27.911Z,9.20
2019-05-26T03:24:56.440Z,9.20
2019-05-26T03:27:24.155Z,9.30
2019-05-26T03:29:51.808Z,9.30
2019-05-26T03:32:19.452Z,9.40
2019-05-26T03:34:47.085Z,9.30
2019-05-26T03:37:14.739Z,9.40
2019-05-26T03:39:45.951Z,9.30
2019-05-26T03:42:11.814Z,9.20
2019-05-26T03:44:39.464Z,9.10
2019-05-26T03:47:07.128Z,9.00
2019-05-26T03:49:34.735Z,9.20
2019-05-26T03:52:03.308Z,9.20
2019-05-26T03:56:58.322Z,8.80
2019-05-26T03:59:25.964Z,8.70
2019-05-26T04:01:57.662Z,8.90
2019-05-26T04:04:22.956Z,9.00
2019-05-26T04:06:50.771Z,9.00
2019-05-26T04:09:18.405Z,9.10
2019-05-26T04:11:46.048Z,9.20
2019-05-26T04:14:13.695Z,9.20
2019-05-26T04:16:41.339Z,9.30
2019-05-26T04:19:08.962Z,9.30
2019-05-26T04:21:36.607Z,9.30
2019-05-26T04:24:04.259Z,9.30
2019-05-26T04:26:31.938Z,9.30
2019-05-26T04:28:59.615Z,9.40
2019-05-26T04:31:27.270Z,9.40
2019-05-26T04:33:54.898Z,9.30
2019-05-26T04:36:22.543Z,9.30
2019-05-26T04:38:50.179Z,9.30
2019-05-26T04:41:17.837Z,9.30
2019-05-26T04:43:45.469Z,9.40
2019-05-26T04:46:13.127Z,9.40
2019-05-26T04:48:40.760Z,9.40
2019-05-26T04:51:08.427Z,9.40
2019-05-26T04:53:36.045Z,9.50
2019-05-26T04:56:03.773Z,9.50
2019-05-26T04:58:31.398Z,9.50
2019-05-26T05:00:59.060Z,9.50
2019-05-26T05:08:21.610Z,10.00
2019-05-26T05:10:49.252Z,9.90
2019-05-26T05:13:16.883Z,9.90
2019-05-26T05:15:44.552Z,10.10
2019-05-26T05:18:12.203Z,10.20
2019-05-26T05:20:39.927Z,10.20
2019-05-26T05:23:07.583Z,10.40
2019-05-26T05:25:35.244Z,10.50
2019-05-26T05:28:02.972Z,10.70
2019-05-26T05:30:30.721Z,10.90
2019-05-26T05:32:58.449Z,11.00
2019-05-26T05:35:26.103Z,11.20
2019-05-26T05:37:53.771Z,11.30
2019-05-26T05:40:21.502Z,11.30
2019-05-26T05:42:49.169Z,11.40
2019-05-26T05:45:16.899Z,11.60
2019-05-26T05:47:44.563Z,11.70
2019-05-26T05:50:12.297Z,11.70
2019-05-26T05:52:39.966Z,11.90
2019-05-26T05:55:07.792Z,12.10
2019-05-26T05:57:35.492Z,12.20
2019-05-26T06:00:05.910Z,12.30
2019-05-26T06:02:33.601Z,12.40
2019-05-26T06:05:01.372Z,12.30
2019-05-26T06:07:29.153Z,12.50
2019-05-26T06:09:56.832Z,12.70
2019-05-26T06:14:51.966Z,12.70
2019-05-26T06:17:19.637Z,13.20
2019-05-26T06:19:47.413Z,13.40
2019-05-26T06:22:15.103Z,13.60
2019-05-26T06:24:42.788Z,13.80
2019-05-26T06:27:10.486Z,13.80
2019-05-26T06:32:05.939Z,14.20
2019-05-26T06:34:33.836Z,14.40
2019-05-26T06:39:29.019Z,14.40
2019-05-26T06:41:56.703Z,14.60
2019-05-26T06:54:13.992Z,15.20
2019-05-26T06:56:41.622Z,15.30
2019-05-26T06:59:09.301Z,15.50
2019-05-26T07:01:36.969Z,15.40
2019-05-26T07:04:04.638Z,15.50
2019-05-26T07:06:32.284Z,15.50
2019-05-26T07:08:59.951Z,15.50
2019-05-26T07:11:27.686Z,15.60
2019-05-26T07:26:13.983Z,16.90
2019-05-26T07:31:09.040Z,17.30
2019-05-26T07:33:36.741Z,17.50
2019-05-26T07:36:04.399Z,17.60
2019-05-26T07:38:32.100Z,17.80
2019-05-26T07:40:59.759Z,17.90
2019-05-26T07:43:28.290Z,17.90
2019-05-26T07:45:56.120Z,18.10
2019-05-26T07:48:23.819Z,18.20
2019-05-26T07:50:51.514Z,18.40
2019-05-26T07:53:19.165Z,18.70
2019-05-26T07:55:46.830Z,18.90
2019-05-26T08:03:09.245Z,19.10
2019-05-26T08:08:12.594Z,19.00
2019-05-26T08:10:33.631Z,18.80
2019-05-26T08:13:01.292Z,19.20
2019-05-26T08:15:28.959Z,19.10
2019-05-26T08:17:56.604Z,19.20
2019-05-26T08:20:24.302Z,19.50
2019-05-26T08:22:51.968Z,19.60
2019-05-26T08:27:46.986Z,19.60
2019-05-26T08:30:14.782Z,19.60
2019-05-26T08:35:10.356Z,20.10
2019-05-26T08:37:38.011Z,19.80
2019-05-26T08:40:17.855Z,19.50
2019-05-26T08:42:46.308Z,19.40
2019-05-26T08:45:14.239Z,19.40
2019-05-26T08:50:09.310Z,19.70
2019-05-26T08:52:36.994Z,20.00
2019-05-26T08:55:05.643Z,19.90
2019-05-26T08:57:33.291Z,20.10
2019-05-26T09:00:00.959Z,20.00
2019-05-26T09:02:28.604Z,20.10
2019-05-26T09:04:56.268Z,20.30
2019-05-26T09:07:23.900Z,20.00
2019-05-26T09:09:51.566Z,20.20
2019-05-26T09:12:20.002Z,20.30
2019-05-26T09:14:47.644Z,20.20
2019-05-26T09:17:15.279Z,20.30
2019-05-26T09:19:42.928Z,20.30
2019-05-26T09:22:10.562Z,20.70
2019-05-26T09:24:38.294Z,20.70
2019-05-26T09:27:05.975Z,21.00
2019-05-26T09:29:33.642Z,21.10
2019-05-26T09:32:01.287Z,21.00
2019-05-26T09:34:28.992Z,20.90
2019-05-26T09:36:57.226Z,20.80
2019-05-26T09:39:25.000Z,20.60
2019-05-26T09:41:52.648Z,20.70
2019-05-26T09:44:20.313Z,20.70
2019-05-26T09:46:47.960Z,20.80
2019-05-26T09:49:15.625Z,21.00
2019-05-26T09:51:43.268Z,21.50
2019-05-26T09:54:12.790Z,21.40
2019-05-26T09:56:40.305Z,21.60
2019-05-26T09:59:07.955Z,21.40
2019-05-26T10:01:35.615Z,21.20
2019-05-26T10:04:03.263Z,21.30
2019-05-26T10:06:30.961Z,21.60
2019-05-26T10:08:58.615Z,21.90
2019-05-26T10:11:26.259Z,22.00
2019-05-26T10:13:53.991Z,21.70
2019-05-26T10:16:21.634Z,21.30
2019-05-26T10:18:49.279Z,21.60
2019-05-26T10:21:16.930Z,22.20
2019-05-26T10:23:44.569Z,22.20
2019-05-26T10:26:12.220Z,21.70
2019-05-26T10:28:39.854Z,21.70
2019-05-26T10:31:07.537Z,21.80
2019-05-26T10:33:35.171Z,22.00
2019-05-26T10:36:02.834Z,22.40
2019-05-26T10:38:30.463Z,22.20
2019-05-26T10:40:58.139Z,22.30
2019-05-26T10:43:25.787Z,22.80
2019-05-26T10:45:53.453Z,22.50
2019-05-26T10:48:21.085Z,22.50
2019-05-26T10:50:48.793Z,22.80
2019-05-26T10:53:16.464Z,23.10
2019-05-26T10:55:44.127Z,23.20
2019-05-26T10:58:11.780Z,23.40
2019-05-26T11:00:39.437Z,24.00
2019-05-26T11:05:34.443Z,24.50
2019-05-26T11:08:02.094Z,24.00
2019-05-26T11:10:29.754Z,23.70
2019-05-26T11:12:57.391Z,23.40
2019-05-26T11:15:25.114Z,23.50
2019-05-26T11:17:52.771Z,23.60
2019-05-26T11:20:20.592Z,23.50
2019-05-26T11:22:49.204Z,23.80
2019-05-26T11:25:16.972Z,24.10
2019-05-26T11:27:44.652Z,24.10
2019-05-26T11:30:13.100Z,24.30
2019-05-26T11:32:40.803Z,24.00
2019-05-26T11:35:08.521Z,24.40
2019-05-26T11:37:36.246Z,24.60
2019-05-26T11:40:06.855Z,24.00
2019-05-26T11:42:34.497Z,23.90
2019-05-26T11:45:02.223Z,23.90
2019-05-26T11:47:29.875Z,24.10
2019-05-26T11:49:57.582Z,24.20
2019-05-26T11:52:25.314Z,23.20
2019-05-26T11:54:52.965Z,24.10
2019-05-26T11:57:20.615Z,24.10
2019-05-26T11:59:48.265Z,24.60
2019-05-26T12:02:15.903Z,24.50
2019-05-26T12:04:43.565Z,24.00
2019-05-26T12:07:11.202Z,22.70
2019-05-26T12:09:38.842Z,22.80
2019-05-26T12:12:06.530Z,23.60
2019-05-26T12:14:35.626Z,24.20
2019-05-26T12:17:03.552Z,24.30
2019-05-26T12:19:31.212Z,23.90
2019-05-26T12:24:26.346Z,25.00
2019-05-26T12:26:54.005Z,24.50
2019-05-26T12:29:21.637Z,23.30
2019-05-26T12:31:49.290Z,24.30
2019-05-26T12:34:16.952Z,24.70
2019-05-26T12:36:44.600Z,24.10
2019-05-26T12:39:12.275Z,23.60
2019-05-26T12:41:39.923Z,23.30
2019-05-26T12:44:10.756Z,22.90
2019-05-26T12:46:36.953Z,23.10
2019-05-26T12:49:04.605Z,23.80
2019-05-26T12:51:32.368Z,23.90
2019-05-26T12:54:00.012Z,23.40
2019-05-26T12:56:27.659Z,24.20
2019-05-26T12:58:55.288Z,23.60
2019-05-26T13:01:22.935Z,24.10
2019-05-26T13:03:50.593Z,23.40
2019-05-26T13:06:18.241Z,24.30
2019-05-26T13:08:45.883Z,24.20
2019-05-26T13:11:13.538Z,24.60
2019-05-26T13:13:41.170Z,24.70
2019-05-26T13:16:08.832Z,25.00
2019-05-26T13:18:36.474Z,24.70
2019-05-26T13:21:04.196Z,24.30
2019-05-26T13:23:31.826Z,24.00
2019-05-26T13:25:59.499Z,24.00
2019-05-26T13:28:27.151Z,24.70
2019-05-26T13:30:54.844Z,24.80
2019-05-26T13:33:22.519Z,23.80
2019-05-26T13:35:50.163Z,24.50
2019-05-26T13:38:17.819Z,24.80
2019-05-26T13:40:45.487Z,24.50
2019-05-26T13:43:13.125Z,24.60
2019-05-26T13:45:40.772Z,24.10
2019-05-26T13:48:08.435Z,23.50
2019-05-26T13:50:36.151Z,22.90
2019-05-26T13:53:03.872Z,23.80
2019-05-26T13:55:31.558Z,24.60
2019-05-26T13:57:59.266Z,24.00
2019-05-26T14:00:26.987Z,24.20
2019-05-26T14:02:54.758Z,25.00
2019-05-26T14:05:22.424Z,25.00
2019-05-26T14:07:50.091Z,25.20
2019-05-26T14:10:19.275Z,26.00
2019-05-26T14:12:46.945Z,25.80
2019-05-26T14:15:14.662Z,24.90
2019-05-26T14:17:42.507Z,24.90
2019-05-26T14:20:10.447Z,24.90
2019-05-26T14:22:38.121Z,24.60
2019-05-26T14:25:06.154Z,24.80
2019-05-26T14:27:33.871Z,25.30
2019-05-26T14:30:01.681Z,24.60
2019-05-26T14:32:29.400Z,23.70
2019-05-26T14:34:57.051Z,22.90
2019-05-26T14:37:24.724Z,23.30
2019-05-26T14:39:52.366Z,24.60
2019-05-26T14:42:20.968Z,25.40
2019-05-26T14:44:48.685Z,25.20
2019-05-26T14:49:43.763Z,25.70
2019-05-26T14:52:11.459Z,25.50
2019-05-26T14:54:39.143Z,24.80
2019-05-26T14:57:06.791Z,24.80
2019-05-26T14:59:34.437Z,24.20
2019-05-26T15:02:03.087Z,24.10
2019-05-26T15:04:31.306Z,24.30
2019-05-26T15:06:59.049Z,23.40
2019-05-26T15:09:26.685Z,22.90
2019-05-26T15:11:54.357Z,23.60
2019-05-26T15:14:22.051Z,24.00
2019-05-26T15:16:49.699Z,23.60
2019-05-26T15:19:17.348Z,23.50
2019-05-26T15:21:45.063Z,23.70
2019-05-26T15:24:12.721Z,24.40
2019-05-26T15:26:41.954Z,24.80
2019-05-26T15:29:28.978Z,24.80
2019-05-26T15:31:56.615Z,24.90
2019-05-26T15:34:24.259Z,24.70
2019-05-26T15:36:51.895Z,24.20
2019-05-26T15:39:19.555Z,24.00
2019-05-26T15:41:47.219Z,23.80
2019-05-26T15:44:14.871Z,24.20
2019-05-26T15:46:42.513Z,24.20
2019-05-26T15:49:10.166Z,24.40
2019-05-26T15:51:37.794Z,24.50
2019-05-26T15:54:05.457Z,24.50
2019-05-26T15:56:33.082Z,24.20
2019-05-26T15:59:00.723Z,24.10
2019-05-26T16:01:28.364Z,24.00
2019-05-26T16:03:56.010Z,23.80
2019-05-26T16:06:23.664Z,24.00
2019-05-26T16:08:51.303Z,23.50
2019-05-26T16:11:19.002Z,23.10
2019-05-26T16:13:46.681Z,23.10
2019-05-26T16:16:14.383Z,22.80
2019-05-26T16:18:42.040Z,22.40
2019-05-26T16:21:26.592Z,22.60
2019-05-26T16:23:39.050Z,22.90
2019-05-26T16:26:06.779Z,23.30
2019-05-26T16:28:34.519Z,23.50
2019-05-26T16:31:02.216Z,24.00
2019-05-26T16:33:29.867Z,23.80
2019-05-26T16:35:57.568Z,23.50
2019-05-26T16:38:25.257Z,23.40
2019-05-26T16:40:52.931Z,22.90
2019-05-26T16:43:20.635Z,23.40
2019-05-26T16:45:56.231Z,23.40
2019-05-26T16:48:17.654Z,23.40
2019-05-26T16:50:45.302Z,23.20
2019-05-26T16:53:12.948Z,22.80
2019-05-26T16:55:40.591Z,22.50
2019-05-26T16:58:08.248Z,22.20
2019-05-26T17:03:03.752Z,22.10
2019-05-26T17:05:31.411Z,21.70
2019-05-26T17:07:59.054Z,21.50
2019-05-26T17:10:26.693Z,21.40
2019-05-26T17:15:21.715Z,21.20
2019-05-26T17:17:49.402Z,21.20
2019-05-26T17:20:17.103Z,21.10
2019-05-26T17:22:44.734Z,21.10
2019-05-26T17:25:12.378Z,21.10
2019-05-26T17:27:40.012Z,21.00
2019-05-26T17:30:08.492Z,20.90
2019-05-26T17:32:36.139Z,20.80
2019-05-26T17:35:04.650Z,20.70
2019-05-26T17:37:32.298Z,20.80
2019-05-26T17:39:59.980Z,20.50
2019-05-26T17:42:27.623Z,20.40
2019-05-26T17:47:30.226Z,20.20
2019-05-26T17:49:52.021Z,20.10
2019-05-26T17:52:19.690Z,20.20
2019-05-26T17:54:47.351Z,20.00
2019-05-26T17:57:15.002Z,20.10
2019-05-26T17:59:42.667Z,20.00
2019-05-26T18:02:10.326Z,19.90
2019-05-26T18:04:37.997Z,19.80
2019-05-26T18:07:05.717Z,19.60
2019-05-26T18:09:43.769Z,19.50
2019-05-26T18:12:02.748Z,19.40
2019-05-26T18:14:30.387Z,19.40
2019-05-26T18:16:58.079Z,19.40
2019-05-26T18:19:29.500Z,19.30
2019-05-26T18:21:55.129Z,19.30
2019-05-26T18:24:22.787Z,19.10
2019-05-26T18:26:50.439Z,19.10
2019-05-26T18:29:18.098Z,19.00
2019-05-26T18:31:45.756Z,19.00
2019-05-26T18:34:13.479Z,19.10
2019-05-26T18:36:41.122Z,19.00
2019-05-26T18:39:08.939Z,19.00
2019-05-26T18:41:36.580Z,19.00
2019-05-26T18:48:58.989Z,18.70
2019-05-26T18:53:54.018Z,18.40
2019-05-26T18:56:21.655Z,18.20
2019-05-26T18:58:49.383Z,18.20
2019-05-26T19:01:17.966Z,18.00
2019-05-26T19:03:45.644Z,17.60
2019-05-26T19:06:13.279Z,17.50
2019-05-26T19:08:40.913Z,17.30
2019-05-26T19:11:08.627Z,17.20
2019-05-26T19:13:36.256Z,17.20
2019-05-26T19:18:31.293Z,16.80
2019-05-26T19:20:58.940Z,16.80
2019-05-26T19:23:26.579Z,16.80
2019-05-26T19:28:21.596Z,16.50
2019-05-26T19:30:49.254Z,16.40
2019-05-26T19:35:44.268Z,16.20
2019-05-26T19:38:11.907Z,16.10
2019-05-26T19:40:39.559Z,16.10
2019-05-26T19:43:07.202Z,16.00
2019-05-26T19:45:34.847Z,15.90
2019-05-26T19:48:02.475Z,15.70
2019-05-26T19:50:30.119Z,15.70
2019-05-26T19:52:57.761Z,15.70
2019-05-26T19:55:25.417Z,15.60
2019-05-26T19:57:53.061Z,15.60
2019-05-26T20:00:20.851Z,15.50
2019-05-26T20:02:48.483Z,15.50
2019-05-26T20:05:16.695Z,15.20
2019-05-26T20:07:44.332Z,15.10
2019-05-26T20:10:12.054Z,15.20
2019-05-26T20:12:39.682Z,15.20
2019-05-26T20:15:08.057Z,15.00
2019-05-26T20:17:35.719Z,15.00
2019-05-26T20:20:04.959Z,14.90
2019-05-26T20:22:32.591Z,15.00
2019-05-26T20:25:00.263Z,15.00
2019-05-26T20:27:27.903Z,14.90
2019-05-26T20:29:55.645Z,14.60
2019-05-26T20:32:23.285Z,14.80
2019-05-26T20:34:50.932Z,14.90
2019-05-26T20:37:18.579Z,14.80
2019-05-26T20:39:46.227Z,14.70
2019-05-26T20:42:14.863Z,14.40
2019-05-26T20:44:42.498Z,14.20
2019-05-26T20:47:10.154Z,14.00
2019-05-26T20:49:45.519Z,14.10
2019-05-26T20:52:07.225Z,14.20
2019-05-26T20:54:34.862Z,14.30
2019-05-26T20:57:02.506Z,14.30
2019-05-26T20:59:30.144Z,14.20
2019-05-26T21:01:57.796Z,14.20
2019-05-26T21:04:26.110Z,14.20
2019-05-26T21:09:21.130Z,14.10
2019-05-26T21:11:48.779Z,14.10
2019-05-26T21:14:16.420Z,14.00
2019-05-26T21:16:44.095Z,14.00
2019-05-26T21:19:11.726Z,14.00
2019-05-26T21:21:39.377Z,14.00
2019-05-26T21:24:07.008Z,14.00
2019-05-26T21:26:34.653Z,13.90
2019-05-26T21:29:02.299Z,13.80
2019-05-26T21:31:29.948Z,13.70
2019-05-26T21:33:57.590Z,13.70
2019-05-26T21:36:25.259Z,13.70
2019-05-26T21:38:52.899Z,13.60
2019-05-26T21:41:20.558Z,13.60
2019-05-26T21:43:48.185Z,13.60
2019-05-26T21:46:15.834Z,13.60
2019-05-26T21:48:43.471Z,13.60
2019-05-26T21:51:11.131Z,13.50
2019-05-26T21:53:38.784Z,13.40
2019-05-26T21:58:33.838Z,13.30
2019-05-26T22:01:01.491Z,13.20
2019-05-26T22:03:29.123Z,13.30
2019-05-26T22:05:56.775Z,13.20
2019-05-26T22:08:24.410Z,13.10
2019-05-26T22:13:19.575Z,12.70
2019-05-26T22:15:47.222Z,12.60
2019-05-26T22:18:14.873Z,12.50
2019-05-26T22:20:42.512Z,12.50
2019-05-26T22:23:11.154Z,12.60
2019-05-26T22:25:38.802Z,12.50
2019-05-26T22:28:06.472Z,12.40
2019-05-26T22:30:34.106Z,12.50
2019-05-26T22:33:01.770Z,12.60
2019-05-26T22:35:29.394Z,12.50
2019-05-26T22:37:57.059Z,12.30
2019-05-26T22:40:24.699Z,12.20
2019-05-26T22:42:52.354Z,12.20
2019-05-26T22:45:19.983Z,12.30
2019-05-26T22:47:47.643Z,12.30
2019-05-26T22:50:15.277Z,12.30
2019-05-26T22:52:42.931Z,12.20
2019-05-26T22:55:10.591Z,12.20
2019-05-26T22:57:38.248Z,12.20
2019-05-26T23:00:07.452Z,12.20
2019-05-26T23:02:35.116Z,12.10
2019-05-26T23:05:02.818Z,12.00
2019-05-26T23:07:30.484Z,12.00
2019-05-26T23:09:58.246Z,12.00
2019-05-26T23:12:25.911Z,12.00
2019-05-26T23:14:53.543Z,11.90
2019-05-26T23:17:21.194Z,11.80
2019-05-26T23:19:48.830Z,11.70
2019-05-26T23:24:43.843Z,11.70
2019-05-26T23:27:11.497Z,11.60
2019-05-26T23:29:39.152Z,11.70
2019-05-26T23:32:06.798Z,11.60
2019-05-26T23:34:34.446Z,11.50
2019-05-26T23:37:02.133Z,11.40
2019-05-26T23:39:29.822Z,11.40
2019-05-26T23:41:57.468Z,11.40
2019-05-26T23:44:25.137Z,11.30
2019-05-26T23:46:52.848Z,11.20
2019-05-26T23:49:20.487Z,11.30
2019-05-26T23:51:48.143Z,11.30
2019-05-26T23:54:15.771Z,11.20
